Latest Weather Observations for Pearce

IDW60901

Issued at 2:21 pm WST Tuesday 19 January 2021 (issued every 10 minutes, with the page automatically refreshed every 10 minutes)

About weather observations | Map of Perth area stations | Latest observations for Perth area | Other Formats
Station Details ID: 009053 Name: PEARCE RAAF Lat: -31.67 Lon: 116.02 Height: 40.0 m
Data from the previous 72 hours. | See also: Recent months at Pearce
Date/Time
WST
Temp
°C
App
Temp
°C
Dew
Point
°C
Rel
Hum
%
Delta-T
°C
Wind Press
QNH
hPa
Press
MSL
hPa
Rain since
9am
mm
Dir  Spd
km/h
Gust
km/h
Spd
kts
Gust
kts
19/02:00pm 33.1 30.8 14.2 32 11.6 WSW 19 24 10 13 1008.1 1007.9 -
19/01:32pm 32.0 28.0 14.2 34 10.9 W 28 46 15 25 1008.0 1007.8 -
19/01:30pm 31.3 27.0 15.3 38 9.9 W 32 46 17 25 1008.0 1007.8 -
19/01:26pm 30.5 26.6 16.5 43 8.8 W 32 37 17 20 1008.1 1007.9 -
19/01:00pm 36.4 32.8 10.6 21 15.2 NW 20 35 11 19 1007.8 1007.6 -
19/12:30pm 37.0 33.1 8.8 18 16.2 NNW 19 33 10 18 1008.2 1008.0 -
19/12:00pm 37.1 32.3 8.8 18 16.3 N 24 35 13 19 1008.4 1008.2 -
19/11:30am 35.4 29.5 7.5 18 15.6 NNW 28 43 15 23 1009.1 1008.9 -
19/11:00am 36.1 30.3 8.0 18 15.9 NNW 28 41 15 22 1009.5 1009.3 -
19/10:30am 35.4 32.0 9.0 20 15.1 NNW 17 32 9 17 1009.8 1009.6 -
19/10:06am 35.5 33.2 10.5 22 14.6 N 13 19 7 10 1010.1 1009.9 -
19/10:00am 33.5 30.0 8.9 22 13.9 N 17 26 9 14 1010.2 1010.0 -
19/09:30am 34.4 30.4 8.9 21 14.5 N 20 30 11 16 1010.3 1010.1 -
19/09:00am 32.9 29.3 8.4 22 13.7 NNE 17 22 9 12 1010.5 1010.3 -
19/08:30am 31.8 27.6 7.5 22 13.3 N 19 30 10 16 1010.7 1010.5 -
19/08:00am 30.7 25.9 7.2 23 12.8 ENE 22 33 12 18 1010.7 1010.5 -
19/07:30am 29.5 23.7 6.2 23 12.4 ENE 26 39 14 21 1010.6 1010.4 -
19/07:00am 28.9 23.2 6.9 25 11.8 NE 26 37 14 20 1010.6 1010.4 -
19/06:30am 28.3 22.7 7.0 26 11.4 ENE 26 39 14 21 1010.4 1010.2 -
19/06:00am 27.3 23.1 8.2 30 10.4 ENE 20 32 11 17 1010.1 1009.9 -
19/05:30am 27.2 22.8 9.1 32 10.0 ENE 22 32 12 17 1010.0 1009.8 -
19/05:00am 27.1 23.1 10.3 35 9.4 ENE 22 33 12 18 1009.9 1009.7 -
19/04:30am 27.3 23.0 10.9 36 9.3 ENE 24 41 13 22 1009.7 1009.5 -
19/04:00am 27.3 23.4 10.9 36 9.3 ENE 22 35 12 19 1009.6 1009.4 -
19/03:30am 26.9 22.3 12.2 40 8.5 ENE 28 41 15 22 1009.7 1009.5 -
19/03:00am 27.0 23.4 13.0 42 8.2 ENE 24 32 13 17 1009.9 1009.7 -
19/02:30am 26.9 22.6 12.2 40 8.5 ENE 26 39 14 21 1009.8 1009.6 -
19/02:00am 27.1 24.9 12.0 39 8.7 NE 15 24 8 13 1010.0 1009.8 -
19/01:30am 26.4 25.1 12.5 42 8.1 E 11 24 6 13 1010.3 1010.1 -
19/01:00am 25.5 23.1 12.7 45 7.4 ENE 17 30 9 16 1010.8 1010.6 -
19/12:30am 26.0 22.4 11.7 41 8.2 ENE 22 35 12 19 1010.9 1010.7 -
19/12:00am 25.7 21.8 12.2 43 7.8 NE 24 39 13 21 1011.1 1010.9 -
 
Date/Time
WST
Temp
°C
App
Temp
°C
Dew
Point
°C
Rel
Hum
%
Delta-T
°C
Wind Press
QNH
hPa
Press
MSL
hPa
Rain since
9am
mm
Dir  Spd
km/h
Gust
km/h
Spd
kts
Gust
kts
18/11:30pm 25.9 22.0 12.0 42 8.0 ENE 24 33 13 18 1011.4 1011.2 -
18/11:00pm 26.0 22.0 11.7 41 8.2 NE 24 35 13 19 1011.7 1011.5 -
18/10:30pm 25.9 22.0 12.0 42 8.0 ENE 24 32 13 17 1011.7 1011.5 -
18/10:00pm 25.7 22.3 12.5 44 7.6 ENE 22 32 12 17 1011.9 1011.7 -
18/09:30pm 25.1 23.5 11.6 42 7.7 NE 11 22 6 12 1012.3 1012.1 -
18/09:00pm 25.1 22.1 12.0 44 7.5 ENE 19 28 10 15 1012.1 1011.9 -
18/08:30pm 24.8 23.6 11.7 44 7.4 ENE 9 15 5 8 1012.2 1012.0 -
18/08:00pm 24.8 23.7 13.0 47 6.9 NE 11 20 6 11 1012.0 1011.8 -
18/07:30pm 24.3 22.9 15.5 58 5.3 ENE 17 26 9 14 1011.8 1011.6 -
18/07:00pm 24.0 22.1 15.2 58 5.3 NE 19 26 10 14 1012.3 1012.1 -
18/06:30pm 25.1 23.0 13.6 49 6.8 NE 17 26 9 14 1012.7 1012.5 -
18/06:00pm 26.0 24.0 13.8 47 7.2 NNE 17 20 9 11 1012.6 1012.4 -
18/05:30pm 25.9 23.8 15.3 52 6.4 NNE 20 28 11 15 1012.2 1012.0 -
18/05:00pm 28.1 25.2 12.8 38 9.0 N 20 28 11 15 1012.3 1012.1 -
18/04:30pm 29.5 26.7 11.5 33 10.4 N 17 22 9 12 1012.3 1012.1 -
18/04:00pm 30.6 27.8 11.5 30 11.1 NNE 17 24 9 13 1012.0 1011.8 -
18/03:30pm 31.0 28.1 10.9 29 11.6 ENE 17 32 9 17 1011.9 1011.7 -
18/03:00pm 30.4 27.5 10.9 30 11.2 NE 17 22 9 12 1011.9 1011.7 -
18/02:30pm 30.6 26.8 11.1 30 11.3 ENE 22 33 12 18 1011.8 1011.6 -
18/02:00pm 31.9 28.6 11.7 29 11.9 NE 20 30 11 16 1012.1 1011.9 -
18/01:30pm 30.6 26.7 12.0 32 10.9 NE 24 35 13 19 1012.1 1011.9 -
18/01:00pm 30.0 27.3 12.9 35 10.1 NE 19 30 10 16 1012.9 1012.7 -
18/12:30pm 28.5 25.7 14.3 41 8.6 NE 22 33 12 18 1013.3 1013.1 -
18/12:00pm 25.0 22.2 13.2 48 6.9 ENE 20 32 11 17 1013.2 1013.0 -
18/11:30am 23.6 19.5 11.6 47 6.8 NE 24 41 13 22 1014.1 1013.9 -
18/11:00am 27.1 21.2 6.0 26 11.0 NNE 26 39 14 21 1014.5 1014.3 -
18/10:30am 27.7 21.3 3.4 21 12.1 NNE 26 37 14 20 1014.4 1014.2 -
18/10:00am 29.0 21.4 3.1 19 13.0 NNE 32 43 17 23 1014.6 1014.4 -
18/09:30am 28.3 20.6 2.5 19 12.7 NE 32 50 17 27 1014.2 1014.0 -
18/09:15am 28.3 20.6 2.5 19 12.7 NE 32 50 17 27 1014.2 1014.0 -
18/09:00am 28.1 20.3 1.6 18 12.9 NE 32 43 17 23 1014.2 1014.0 -
18/08:36am 27.6 19.5 1.2 18 12.7 NE 33 56 18 30 1014.4 1014.2 -
18/08:30am 27.4 19.3 1.0 18 12.6 ENE 33 50 18 27 1014.6 1014.4 -
18/08:02am 27.0 19.9 1.4 19 12.3 NE 28 46 15 25 1015.0 1014.7 -
18/08:00am 27.1 20.4 1.5 19 12.3 NE 26 37 14 20 1015.2 1014.9 -
18/07:46am 27.0 19.4 0.7 18 12.5 NE 30 48 16 26 1015.3 1015.0 -
18/07:30am 26.9 20.1 0.6 18 12.4 ENE 26 43 14 23 1015.5 1015.2 -
18/07:00am 26.6 21.8 0.4 18 12.3 ENE 15 24 8 13 1015.5 1015.2 -
18/06:30am 26.3 20.7 0.1 18 12.2 NE 19 30 10 16 1015.3 1015.0 -
18/06:00am 26.0 20.5 0.6 19 11.9 NE 19 30 10 16 1014.8 1014.6 -
18/05:30am 26.7 20.9 -0.3 17 12.5 NE 20 30 11 16 1014.2 1014.0 -
18/05:00am 27.0 22.4 -0.9 16 12.8 NE 13 20 7 11 1014.3 1014.1 -
18/04:30am 27.2 22.3 -0.8 16 12.9 ENE 15 28 8 15 1013.0 1012.8 -
18/04:00am 27.2 19.7 -1.7 15 13.1 ENE 28 43 15 23 1012.1 1011.9 -
18/03:30am 27.6 19.4 -1.3 15 13.3 ENE 32 46 17 25 1011.7 1011.5 -
18/03:00am 28.0 20.6 -1.0 15 13.4 ENE 28 39 15 21 1012.1 1011.9 -
18/02:30am 28.4 20.9 -1.6 14 13.8 ENE 28 43 15 23 1011.9 1011.7 -
18/02:00am 28.8 21.7 -1.3 14 14.0 ENE 26 39 14 21 1012.0 1011.8 -
18/01:30am 29.3 21.9 -0.9 14 14.1 ENE 28 46 15 25 1012.4 1012.2 -
18/01:11am 29.6 21.7 -1.7 13 14.5 ENE 30 48 16 26 1012.2 1012.0 -
18/01:00am 29.7 22.2 -1.6 13 14.5 ENE 28 41 15 22 1012.3 1012.1 -
18/12:50am 29.9 22.0 -1.5 13 14.6 ENE 30 48 16 26 1012.4 1012.2 -
18/12:30am 30.1 22.2 -1.3 13 14.7 ENE 30 44 16 24 1012.2 1012.0 -
18/12:01am 30.5 23.1 -1.0 13 14.9 ENE 28 48 15 26 1012.4 1012.2 -
18/12:00am 30.5 23.4 -1.0 13 14.9 ENE 26 44 14 24 1012.5 1012.3 -
 
Date/Time
WST
Temp
°C
App
Temp
°C
Dew
Point
°C
Rel
Hum
%
Delta-T
°C
Wind Press
QNH
hPa
Press
MSL
hPa
Rain since
9am
mm
Dir  Spd
km/h
Gust
km/h
Spd
kts
Gust
kts
17/11:30pm 30.7 23.7 -0.8 13 14.9 ENE 26 37 14 20 1012.7 1012.5 -
17/11:00pm 30.7 24.4 -0.8 13 14.9 ENE 22 33 12 18 1012.9 1012.7 -
17/10:30pm 30.7 24.0 -0.8 13 14.9 E 24 33 13 18 1013.0 1012.8 -
17/10:00pm 30.8 25.0 0.2 14 14.8 E 20 28 11 15 1013.0 1012.8 -
17/09:30pm 30.9 25.4 0.3 14 14.8 E 19 28 10 15 1013.1 1012.9 -
17/09:00pm 31.3 25.6 -0.4 13 15.2 E 19 28 10 15 1013.0 1012.8 -
17/08:30pm 31.7 25.9 -0.1 13 15.4 E 20 28 11 15 1012.8 1012.6 -
17/08:00pm 31.7 26.6 1.0 14 15.1 E 17 22 9 12 1013.0 1012.8 -
17/07:30pm 32.4 27.8 1.5 14 15.4 E 15 22 8 12 1013.0 1012.8 -
17/07:00pm 33.0 27.7 2.0 14 15.6 E 19 30 10 16 1012.7 1012.5 -
17/06:30pm 33.5 28.1 2.4 14 15.8 E 20 30 11 16 1012.6 1012.4 -
17/06:00pm 34.3 28.4 2.0 13 16.4 E 22 32 12 17 1012.4 1012.2 -
17/05:30pm 35.0 29.6 2.5 13 16.7 ENE 20 39 11 21 1012.1 1011.9 -
17/05:00pm 35.2 29.8 2.6 13 16.8 ENE 20 33 11 18 1012.3 1012.1 -
17/04:30pm 35.8 30.1 3.1 13 17.1 E 22 33 12 18 1012.4 1012.2 -
17/04:00pm 35.6 29.5 3.0 13 17.0 E 24 39 13 21 1012.6 1012.4 -
17/03:30pm 35.7 30.6 4.1 14 16.8 ENE 20 32 11 17 1012.9 1012.7 -
17/03:00pm 35.4 29.9 3.9 14 16.6 E 22 33 12 18 1013.2 1013.0 -
17/02:30pm 35.1 29.5 3.6 14 16.5 E 22 37 12 20 1013.5 1013.3 -
17/02:00pm 34.6 28.4 4.2 15 16.0 ENE 26 35 14 19 1013.7 1013.5 -
17/01:30pm 34.6 29.5 4.2 15 16.0 ENE 20 37 11 20 1014.4 1014.2 -
17/01:00pm 33.7 26.6 3.5 15 15.7 E 30 41 16 22 1014.6 1014.4 -
17/12:30pm 32.9 25.5 3.8 16 15.1 ENE 32 44 17 24 1015.1 1014.8 -
17/12:00pm 32.8 26.3 4.6 17 14.8 ENE 28 43 15 23 1015.3 1015.0 -
17/11:30am 32.1 24.7 4.0 17 14.6 ENE 32 44 17 24 1015.7 1015.4 -
17/11:05am 31.5 24.2 4.3 18 14.1 E 32 50 17 27 1015.9 1015.6 -
17/11:00am 31.2 23.6 4.1 18 14.0 E 33 48 18 26 1016.0 1015.7 -
17/10:38am 30.5 23.0 4.3 19 13.5 ENE 33 52 18 28 1016.0 1015.7 -
17/10:30am 29.9 21.9 3.8 19 13.3 ENE 35 48 19 26 1016.1 1015.8 -
17/10:00am 29.9 21.3 4.5 20 13.1 ENE 39 57 21 31 1016.1 1015.8 -
17/09:32am 28.5 20.6 4.1 21 12.4 ENE 35 54 19 29 1016.2 1015.9 -
17/09:30am 28.0 19.2 3.7 21 12.2 ENE 39 54 21 29 1016.2 1015.9 -
17/09:00am 26.8 17.9 3.3 22 11.6 ENE 39 57 21 31 1016.3 1016.0 -
17/08:32am 26.0 17.6 3.9 24 11.0 ENE 37 56 20 30 1016.7 1016.4 -
17/08:30am 25.8 17.0 3.7 24 11.0 ENE 39 56 21 30 1016.7 1016.4 -
17/08:00am 25.4 16.3 4.0 25 10.6 ENE 41 63 22 34 1016.6 1016.3 -
17/07:34am 24.1 14.9 3.4 26 10.1 ENE 41 59 22 32 1016.5 1016.2 -
17/07:30am 24.2 14.7 4.0 27 10.0 ENE 43 59 23 32 1016.6 1016.3 -
17/07:11am 23.4 15.0 3.9 28 9.6 E 37 56 20 30 1016.4 1016.1 -
17/07:00am 23.0 14.7 4.0 29 9.3 E 37 50 20 27 1016.5 1016.2 -
17/06:30am 22.0 14.1 4.6 32 8.6 E 35 54 19 29 1016.5 1016.2 -
17/06:00am 21.1 13.2 4.6 34 8.1 E 35 54 19 29 1016.3 1016.0 -
17/05:51am 20.9 13.1 4.9 35 7.9 E 35 54 19 29 1016.1 1015.8 -
17/05:30am 20.7 12.6 5.1 36 7.7 E 37 50 20 27 1015.8 1015.5 -
17/05:01am 20.8 13.7 5.6 37 7.6 E 32 50 17 27 1015.5 1015.2 -
17/05:00am 20.9 13.7 5.7 37 7.6 E 33 50 18 27 1015.5 1015.2 -
17/04:31am 20.9 13.7 5.7 37 7.6 E 33 52 18 28 1015.2 1014.9 -
17/04:30am 20.8 13.5 5.6 37 7.6 E 33 44 18 24 1015.3 1015.0 -
17/04:00am 21.1 13.5 5.9 37 7.6 E 35 48 19 26 1014.7 1014.5 -
17/03:45am 21.1 13.5 5.9 37 7.6 E 35 54 19 29 1014.6 1014.4 -
17/03:30am 21.2 12.9 5.9 37 7.7 E 39 56 21 30 1014.4 1014.2 -
17/03:29am 21.3 13.0 6.0 37 7.7 E 39 56 21 30 1014.4 1014.2 -
17/03:00am 21.6 14.0 5.9 36 7.9 ESE 35 56 19 30 1014.4 1014.2 -
17/02:30am 21.9 14.3 5.8 35 8.1 ESE 35 54 19 29 1014.3 1014.1 -
17/02:00am 22.3 14.8 6.1 35 8.2 ESE 35 54 19 29 1014.2 1014.0 -
17/01:42am 22.5 15.3 5.9 34 8.4 ESE 33 52 18 28 1014.4 1014.2 -
17/01:30am 22.7 15.5 6.0 34 8.5 ESE 33 48 18 26 1014.4 1014.2 -
17/01:10am 23.2 16.1 5.6 32 8.9 ESE 32 50 17 27 1014.4 1014.2 -
17/01:00am 23.6 16.5 5.5 31 9.1 ESE 32 48 17 26 1014.4 1014.2 -
17/12:38am 24.3 17.0 4.6 28 9.8 ESE 32 50 17 27 1014.5 1014.3 -
17/12:30am 24.6 17.0 3.8 26 10.3 ESE 33 48 18 26 1014.4 1014.2 -
17/12:10am 25.7 18.3 1.8 21 11.4 ESE 30 50 16 27 1014.3 1014.1 -
17/12:00am 26.0 19.1 -0.1 18 12.1 E 26 37 14 20 1014.3 1014.1 -
 
Date/Time
WST
Temp
°C
App
Temp
°C
Dew
Point
°C
Rel
Hum
%
Delta-T
°C
Wind Press
QNH
hPa
Press
MSL
hPa
Rain since
9am
mm
Dir  Spd
km/h
Gust
km/h
Spd
kts
Gust
kts
16/11:42pm 27.0 18.9 -0.1 17 12.7 E 32 50 17 27 1014.2 1014.0 -
16/11:30pm 27.1 19.0 0.0 17 12.7 E 32 48 17 26 1014.0 1013.8 -
16/11:09pm 27.5 19.2 -0.5 16 13.0 E 33 54 18 29 1013.9 1013.7 -
16/11:00pm 27.6 19.5 -0.5 16 13.1 E 32 48 17 26 1014.0 1013.8 -
16/10:30pm 28.0 19.7 -0.1 16 13.2 E 33 46 18 25 1013.9 1013.7 -
16/10:00pm 28.3 20.4 0.9 17 13.2 E 32 43 17 23 1013.8 1013.6 -
16/09:30pm 29.1 20.8 2.4 18 13.2 E 35 48 19 26 1013.3 1013.1 -
16/09:00pm 29.6 22.4 2.8 18 13.4 E 30 41 16 22 1013.1 1012.9 -
16/08:30pm 30.2 23.2 4.0 19 13.4 E 30 43 16 23 1012.9 1012.7 -
16/08:00pm 30.6 24.3 5.8 21 13.1 E 28 43 15 23 1012.6 1012.4 -
16/07:30pm 31.0 26.1 6.8 22 13.1 E 22 41 12 22 1012.4 1012.2 -
16/07:00pm 31.7 26.4 6.7 21 13.5 E 24 37 13 20 1012.1 1011.9 -
16/06:45pm 32.1 25.7 7.0 21 13.7 E 30 48 16 26 1012.0 1011.8 -
16/06:30pm 32.3 25.4 7.2 21 13.7 E 33 48 18 26 1012.0 1011.8 -
16/06:01pm 32.7 26.8 7.5 21 13.9 ENE 28 46 15 25 1011.8 1011.6 -
16/06:00pm 32.7 27.2 7.5 21 13.9 ENE 26 46 14 25 1011.8 1011.6 -
16/05:30pm 33.2 27.2 7.2 20 14.3 E 28 46 15 25 1011.8 1011.6 -
16/05:27pm 33.5 27.6 7.5 20 14.4 E 28 46 15 25 1011.8 1011.6 -
16/05:00pm 33.2 27.8 7.9 21 14.1 ENE 26 37 14 20 1011.8 1011.6 -
16/04:37pm 33.1 27.3 7.9 21 14.0 ENE 28 48 15 26 1011.8 1011.6 -
16/04:30pm 33.5 27.8 8.2 21 14.2 E 28 39 15 21 1011.9 1011.7 -
16/04:07pm 33.3 27.7 8.7 22 13.9 ENE 28 46 15 25 1012.1 1011.9 -
16/04:00pm 33.2 27.9 8.6 22 13.8 ENE 26 41 14 22 1012.2 1012.0 -
16/03:32pm 33.2 27.0 9.3 23 13.6 E 32 50 17 27 1012.5 1012.3 -
16/03:30pm 32.7 26.2 8.9 23 13.4 E 33 50 18 27 1012.6 1012.4 -
16/03:24pm 33.1 26.7 8.5 22 13.8 E 32 50 17 27 1012.5 1012.3 -
16/03:00pm 32.6 27.4 8.8 23 13.4 E 26 39 14 21 1012.9 1012.7 -
16/02:40pm 33.0 27.5 9.1 23 13.5 E 28 48 15 26 1013.1 1012.9 -
16/02:30pm 32.4 27.5 9.9 25 12.9 ENE 26 43 14 23 1013.2 1013.0 -

Latest Capital City Observations: Canberra | Sydney | Melbourne | Brisbane | Adelaide | Perth | Hobart | Darwin

Other formats

Comma delimited format used in spreadsheet applications
http://www.bom.gov.au/fwo/IDW60901/IDW60901.94612.axf

JavaScript Object Notation format (JSON) in row-major order
http://www.bom.gov.au/fwo/IDW60901/IDW60901.94612.json

Data quality

Most of these data are generated automatically and are frequently updated. Quality checks on data are not normally performed. It is possible for incorrect values to appear. Refer to information at About Latest Weather Observations and please check the disclaimer before using these data.